Time;durP1;ratioP1;P1;durP2;ratioP2;P2;SDS_P1;SDS_P2;PMS_P1;PMS_P2;Temp;Humidity;BMP_temperature;BMP_pressure;BME280_temperature;BME280_humidity;BME280_pressure;Samples;Min_cycle;Max_cycle;Signal;HPM_P1;HPM_P2
2022/09/14 00:01:08;;;;;;;5.28;1.75;;;;;;;-145.23;100.00;58621.06;5004642;28;20234;-54
2022/09/14 00:03:35;;;;;;;2.88;1.30;;;;;;;-145.23;100.00;58621.06;4988091;28;20233;-54
2022/09/14 00:06:06;;;;;;;2.40;1.52;;;;;;;-145.23;100.00;58621.06;4994000;28;20247;-54
2022/09/14 00:08:33;;;;;;;2.85;1.52;;;;;;;-145.23;100.00;58621.06;4998992;28;20340;-54
2022/09/14 00:11:04;;;;;;;6.07;1.63;;;;;;;-145.23;100.00;58621.06;4995557;28;20681;-55
2022/09/14 00:13:31;;;;;;;3.65;1.58;;;;;;;-145.23;100.00;58621.06;4998626;28;20249;-54
2022/09/14 00:16:03;;;;;;;2.00;1.30;;;;;;;-145.23;100.00;58621.06;5013757;28;20252;-54
2022/09/14 00:18:29;;;;;;;4.70;1.73;;;;;;;-145.23;100.00;58621.06;5001869;28;20314;-55
2022/09/14 00:20:59;;;;;;;5.68;1.40;;;;;;;-145.23;100.00;58621.06;4993461;28;20258;-55
2022/09/14 00:23:26;;;;;;;1.77;1.48;;;;;;;-145.23;100.00;58621.06;4995525;28;20834;-54
2022/09/14 00:25:52;;;;;;;5.70;2.05;;;;;;;-145.23;100.00;58621.06;5004395;28;20312;-54
2022/09/14 00:28:19;;;;;;;3.28;1.15;;;;;;;-145.23;100.00;58621.06;5003298;28;20232;-54
2022/09/14 00:30:46;;;;;;;1.80;1.02;;;;;;;-145.23;100.00;58621.06;5011599;28;20245;-54
2022/09/14 00:33:14;;;;;;;4.95;1.70;;;;;;;-145.23;100.00;58621.06;5015075;28;20242;-54
2022/09/14 00:35:40;;;;;;;3.10;1.80;;;;;;;-145.23;100.00;58621.06;5011157;28;20865;-54
2022/09/14 00:38:08;;;;;;;3.60;1.15;;;;;;;-145.23;100.00;58621.06;4995892;28;20703;-54
2022/09/14 00:40:35;;;;;;;3.50;1.60;;;;;;;-145.23;100.00;58621.06;5002186;28;20682;-55
2022/09/14 00:43:02;;;;;;;2.47;1.23;;;;;;;-145.23;100.00;58621.06;5011532;28;20717;-54
2022/09/14 00:45:29;;;;;;;4.28;1.60;;;;;;;-145.23;100.00;58621.06;5010766;28;20724;-54
2022/09/14 00:47:56;;;;;;;2.50;0.90;;;;;;;-145.23;100.00;58621.06;5001453;28;20243;-54
2022/09/14 00:50:24;;;;;;;5.78;1.42;;;;;;;-145.23;100.00;58621.06;4998675;28;20257;-54
2022/09/14 00:52:54;;;;;;;1.17;1.00;;;;;;;-145.23;100.00;58621.06;4992382;28;20628;-54
2022/09/14 00:55:22;;;;;;;2.67;1.50;;;;;;;-145.23;100.00;58621.06;5004977;28;20238;-54
2022/09/14 00:57:52;;;;;;;3.20;1.10;;;;;;;-145.23;100.00;58621.06;5010964;28;20252;-54
2022/09/14 01:00:22;;;;;;;4.25;1.92;;;;;;;-145.23;100.00;58621.06;5004382;28;20596;-53
2022/09/14 01:02:49;;;;;;;2.13;1.10;;;;;;;-145.23;100.00;58621.06;5004367;28;20228;-55
2022/09/14 01:05:16;;;;;;;2.85;1.35;;;;;;;-145.23;100.00;58621.06;5005063;28;20316;-54
2022/09/14 01:07:58;;;;;;;3.85;1.17;;;;;;;-145.23;100.00;58621.06;5004947;28;20261;-55
2022/09/14 01:10:33;;;;;;;3.83;0.98;;;;;;;-145.23;100.00;58621.06;4989693;28;20317;-55
2022/09/14 01:13:07;;;;;;;3.42;1.33;;;;;;;-145.23;100.00;58621.06;4993663;28;20252;-55
2022/09/14 01:15:39;;;;;;;2.97;1.52;;;;;;;-145.23;100.00;58621.06;4995297;28;20221;-55
2022/09/14 01:18:13;;;;;;;4.00;1.23;;;;;;;-145.23;100.00;58621.06;5000749;28;20312;-57
2022/09/14 01:20:45;;;;;;;1.60;1.15;;;;;;;-145.23;100.00;58621.06;4985433;28;20236;-55
2022/09/14 01:23:16;;;;;;;1.55;0.90;;;;;;;-145.23;100.00;58621.06;4995133;28;20260;-54
2022/09/14 01:26:03;;;;;;;6.75;1.80;;;;;;;-145.23;100.00;58621.06;5003653;28;20238;-55
2022/09/14 01:28:35;;;;;;;2.13;1.17;;;;;;;-145.23;100.00;58621.06;5006530;28;20895;-55
2022/09/14 01:31:05;;;;;;;5.35;1.55;;;;;;;-145.23;100.00;58621.06;4992358;28;20233;-56
2022/09/14 01:33:34;;;;;;;6.57;1.58;;;;;;;-145.23;100.00;58621.06;5000777;28;20699;-54
2022/09/14 01:36:03;;;;;;;5.10;1.70;;;;;;;-145.23;100.00;58621.06;5001164;28;20229;-54
2022/09/14 01:38:32;;;;;;;2.97;1.25;;;;;;;-145.23;100.00;58621.06;4996976;28;20437;-53
2022/09/14 01:41:00;;;;;;;3.90;1.70;;;;;;;-145.23;100.00;58621.06;5009638;28;20229;-53
2022/09/14 01:43:30;;;;;;;4.55;2.35;;;;;;;-145.23;100.00;58621.06;5003529;28;20245;-55
2022/09/14 01:46:04;;;;;;;2.80;1.42;;;;;;;-145.23;100.00;58621.06;5016492;28;20249;-54
2022/09/14 01:48:34;;;;;;;2.20;1.00;;;;;;;-145.23;100.00;58621.06;5004775;28;20718;-52
2022/09/14 01:51:01;;;;;;;2.88;2.05;;;;;;;-145.23;100.00;58621.06;4993994;28;20233;-53
2022/09/14 01:53:33;;;;;;;5.07;2.05;;;;;;;-145.23;100.00;58621.06;5003855;28;20622;-53
2022/09/14 01:56:03;;;;;;;4.18;1.92;;;;;;;-145.23;100.00;58621.06;5006456;28;20229;-55
2022/09/14 01:58:34;;;;;;;2.92;1.83;;;;;;;-145.23;100.00;58621.06;5003358;28;20325;-53
2022/09/14 02:01:04;;;;;;;6.00;1.60;;;;;;;-145.23;100.00;58621.06;4994861;28;20264;-53
2022/09/14 02:03:34;;;;;;;3.75;2.38;;;;;;;-145.23;100.00;58621.06;5010120;28;20321;-53
2022/09/14 02:06:06;;;;;;;1.63;1.20;;;;;;;-145.23;100.00;58621.06;5006345;28;20229;-53
2022/09/14 02:08:33;;;;;;;3.17;1.23;;;;;;;-145.23;100.00;58621.06;5009263;28;20336;-53
2022/09/14 02:11:00;;;;;;;2.08;1.42;;;;;;;-145.23;100.00;58621.06;4993927;28;20228;-53
2022/09/14 02:13:27;;;;;;;4.65;1.35;;;;;;;-145.23;100.00;58621.06;5013740;28;20803;-53
2022/09/14 02:15:54;;;;;;;3.03;1.90;;;;;;;-145.23;100.00;58621.06;4999428;28;20284;-53
2022/09/14 02:18:22;;;;;;;3.28;1.48;;;;;;;-145.23;100.00;58621.06;5008686;28;20681;-53
2022/09/14 02:20:54;;;;;;;7.03;2.65;;;;;;;-145.23;100.00;58621.06;5018831;28;20242;-53
2022/09/14 02:23:21;;;;;;;4.25;1.58;;;;;;;-145.23;100.00;58621.06;5011986;28;20962;-53
2022/09/14 02:25:47;;;;;;;3.78;1.40;;;;;;;-145.23;100.00;58621.06;5007551;28;20253;-55
2022/09/14 02:28:14;;;;;;;3.95;1.60;;;;;;;-145.23;100.00;58621.06;5006974;28;20229;-55
2022/09/14 02:30:45;;;;;;;1.52;1.27;;;;;;;-145.23;100.00;58621.06;5004899;28;20244;-55
2022/09/14 02:33:17;;;;;;;4.47;1.60;;;;;;;-145.23;100.00;58621.06;5000711;28;20234;-55
2022/09/14 02:35:50;;;;;;;5.05;1.65;;;;;;;-145.23;100.00;58621.06;5012275;28;20932;-53
2022/09/14 02:38:21;;;;;;;3.75;1.83;;;;;;;-145.23;100.00;58621.06;5015464;28;20711;-53
2022/09/14 02:40:53;;;;;;;3.03;2.13;;;;;;;-145.23;100.00;58621.06;5008335;28;20335;-55
2022/09/14 02:43:28;;;;;;;2.35;1.45;;;;;;;-145.23;100.00;58621.06;5013715;28;20246;-53
2022/09/14 02:45:59;;;;;;;2.58;1.23;;;;;;;-145.23;100.00;58621.06;5012923;28;20319;-55
2022/09/14 02:48:29;;;;;;;3.50;1.92;;;;;;;-145.23;100.00;58621.06;5015013;28;20229;-54
2022/09/14 02:51:02;;;;;;;2.50;1.25;;;;;;;-145.23;100.00;58621.06;5009847;28;20240;-54
2022/09/14 02:53:35;;;;;;;5.15;1.30;;;;;;;-145.23;100.00;58621.06;5010875;28;20256;-54
2022/09/14 02:56:06;;;;;;;3.65;1.63;;;;;;;-145.23;100.00;58621.06;5007649;28;20236;-54
2022/09/14 02:58:37;;;;;;;3.50;1.48;;;;;;;-145.23;100.00;58621.06;5015435;28;20237;-54
2022/09/14 03:01:05;;;;;;;2.97;1.30;;;;;;;-145.23;100.00;58621.06;4993700;28;20245;-54
2022/09/14 03:03:32;;;;;;;3.35;1.85;;;;;;;-145.23;100.00;58621.06;5015132;28;20307;-54
2022/09/14 03:06:00;;;;;;;3.13;1.60;;;;;;;-145.23;100.00;58621.06;5005838;28;20595;-54
2022/09/14 03:08:28;;;;;;;3.97;1.45;;;;;;;-145.23;100.00;58621.06;5013974;28;20728;-54
2022/09/14 03:10:55;;;;;;;4.90;1.48;;;;;;;-145.23;100.00;58621.06;4999343;28;20317;-54
2022/09/14 03:13:21;;;;;;;3.58;1.45;;;;;;;-145.23;100.00;58621.06;5008041;28;20315;-54
2022/09/14 03:15:48;;;;;;;3.08;1.55;;;;;;;-145.23;100.00;58621.06;5005983;28;20241;-55
2022/09/14 03:18:15;;;;;;;2.63;1.83;;;;;;;-145.23;100.00;58621.06;4997647;28;20236;-54
2022/09/14 03:20:42;;;;;;;1.77;1.63;;;;;;;-145.23;100.00;58621.06;5004935;28;20316;-55
2022/09/14 03:23:11;;;;;;;2.35;1.42;;;;;;;-145.23;100.00;58621.06;5001354;28;20313;-54
2022/09/14 03:25:40;;;;;;;4.35;1.70;;;;;;;-145.23;100.00;58621.06;5003076;28;20304;-55
2022/09/14 03:28:07;;;;;;;5.45;1.60;;;;;;;-145.23;100.00;58621.06;4989095;28;21068;-55
2022/09/14 03:30:34;;;;;;;3.97;2.03;;;;;;;-145.23;100.00;58621.06;5007301;28;20228;-54
2022/09/14 03:33:01;;;;;;;4.50;1.40;;;;;;;-145.23;100.00;58621.06;4996615;28;20331;-54
2022/09/14 03:35:29;;;;;;;3.88;1.35;;;;;;;-145.23;100.00;58621.06;5006577;28;20517;-54
2022/09/14 03:37:56;;;;;;;3.65;1.85;;;;;;;-145.23;100.00;58621.06;4993082;28;20258;-54
2022/09/14 03:40:23;;;;;;;2.35;1.70;;;;;;;-145.23;100.00;58621.06;5014707;28;20432;-54
2022/09/14 03:42:51;;;;;;;3.05;1.58;;;;;;;-145.23;100.00;58621.06;5019147;28;20237;-54
2022/09/14 03:45:18;;;;;;;1.40;1.30;;;;;;;-145.23;100.00;58621.06;5013343;28;20263;-54
2022/09/14 03:47:45;;;;;;;2.25;1.73;;;;;;;-145.23;100.00;58621.06;5009712;28;20237;-54
2022/09/14 03:50:13;;;;;;;2.33;1.50;;;;;;;-145.23;100.00;58621.06;5003161;28;20231;-55
2022/09/14 03:52:39;;;;;;;5.82;2.30;;;;;;;-145.23;100.00;58621.06;5018286;28;20249;-54
2022/09/14 03:55:08;;;;;;;3.80;1.80;;;;;;;-145.23;100.00;58621.06;5007273;28;20228;-54
2022/09/14 03:57:36;;;;;;;5.40;2.35;;;;;;;-145.23;100.00;58621.06;5009756;28;20623;-55
2022/09/14 04:00:05;;;;;;;3.05;2.50;;;;;;;-145.23;100.00;58621.06;5013687;28;20224;-54
2022/09/14 04:02:31;;;;;;;2.13;1.73;;;;;;;-145.23;100.00;58621.06;5013441;28;20856;-54
2022/09/14 04:04:58;;;;;;;6.65;2.03;;;;;;;-145.23;100.00;58621.06;5016472;28;20234;-54
2022/09/14 04:07:24;;;;;;;1.88;1.73;;;;;;;-145.23;100.00;58621.06;4996096;28;20236;-54
2022/09/14 04:09:51;;;;;;;3.08;2.10;;;;;;;-145.23;100.00;58621.06;4997464;28;20237;-54
2022/09/14 04:12:17;;;;;;;4.22;2.28;;;;;;;-145.23;100.00;58621.06;5005013;28;20240;-54
2022/09/14 04:14:45;;;;;;;2.40;1.80;;;;;;;-145.23;100.00;58621.06;5013007;28;20229;-52
2022/09/14 04:17:12;;;;;;;3.35;2.50;;;;;;;-145.23;100.00;58621.06;5010177;28;20275;-53
2022/09/14 04:19:40;;;;;;;5.88;1.90;;;;;;;-145.23;100.00;58621.06;5005998;28;20765;-53
2022/09/14 04:22:06;;;;;;;4.10;1.60;;;;;;;-145.23;100.00;58621.06;4996237;28;20321;-54
2022/09/14 04:24:33;;;;;;;4.30;1.80;;;;;;;-145.23;100.00;58621.06;5002137;28;20296;-53
2022/09/14 04:26:59;;;;;;;2.97;2.47;;;;;;;-145.23;100.00;58621.06;4998637;28;20237;-53
2022/09/14 04:29:29;;;;;;;7.47;2.25;;;;;;;-145.23;100.00;58621.06;5005225;28;20722;-53
2022/09/14 04:31:57;;;;;;;2.83;2.17;;;;;;;-145.23;100.00;58621.06;5012355;28;20236;-53
2022/09/14 04:34:23;;;;;;;5.43;2.67;;;;;;;-145.23;100.00;58621.06;5018958;28;20629;-52
2022/09/14 04:36:50;;;;;;;2.92;2.03;;;;;;;-145.23;100.00;58621.06;5005276;28;20222;-54
2022/09/14 04:39:18;;;;;;;10.35;2.35;;;;;;;-145.23;100.00;58621.06;5006750;28;20240;-55
2022/09/14 04:41:45;;;;;;;3.38;1.80;;;;;;;-145.23;100.00;58621.06;5002320;28;20228;-53
2022/09/14 04:44:12;;;;;;;7.97;2.80;;;;;;;-145.23;100.00;58621.06;5005293;28;20232;-54
2022/09/14 04:46:40;;;;;;;3.88;2.28;;;;;;;-145.23;100.00;58621.06;5005962;28;20761;-55
2022/09/14 04:49:08;;;;;;;9.02;3.03;;;;;;;-145.23;100.00;58621.06;5001927;28;20236;-53
2022/09/14 04:51:36;;;;;;;4.90;3.10;;;;;;;-145.23;100.00;58621.06;5006319;28;20239;-53
2022/09/14 04:54:04;;;;;;;3.38;2.55;;;;;;;-145.23;100.00;58621.06;5001860;28;20244;-53
2022/09/14 04:56:32;;;;;;;5.43;2.38;;;;;;;-145.23;100.00;58621.06;5005844;28;20231;-55
2022/09/14 04:59:00;;;;;;;2.58;2.10;;;;;;;-145.23;100.00;58621.06;5007482;28;20595;-55
2022/09/14 05:01:30;;;;;;;3.60;2.28;;;;;;;-145.23;100.00;58621.06;5000021;28;20743;-54
2022/09/14 05:03:57;;;;;;;3.17;2.20;;;;;;;-145.23;100.00;58621.06;5006029;28;20268;-53
2022/09/14 05:06:28;;;;;;;3.65;2.15;;;;;;;-145.23;100.00;58621.06;5006608;28;20300;-54
2022/09/14 05:08:55;;;;;;;2.80;1.98;;;;;;;-145.23;100.00;58621.06;5002760;28;20233;-53
2022/09/14 05:11:23;;;;;;;4.28;2.20;;;;;;;-145.23;100.00;58621.06;4993221;28;20228;-54
2022/09/14 05:13:50;;;;;;;3.42;1.90;;;;;;;-145.23;100.00;58621.06;5010289;28;20237;-53
2022/09/14 05:16:19;;;;;;;3.00;1.73;;;;;;;-145.23;100.00;58621.06;5001637;28;20612;-53
2022/09/14 05:18:45;;;;;;;4.80;2.22;;;;;;;-145.23;100.00;58621.06;5006460;28;20236;-53
2022/09/14 05:21:15;;;;;;;3.50;2.70;;;;;;;-145.23;100.00;58621.06;5008609;28;20220;-53
2022/09/14 05:23:43;;;;;;;5.55;2.28;;;;;;;-145.23;100.00;58621.06;4996463;28;20599;-53
2022/09/14 05:26:10;;;;;;;4.07;1.88;;;;;;;-145.23;100.00;58621.06;4984966;28;20234;-54
2022/09/14 05:28:38;;;;;;;3.63;1.77;;;;;;;-145.23;100.00;58621.06;5003995;28;20237;-57
2022/09/14 05:31:05;;;;;;;4.00;2.47;;;;;;;-145.23;100.00;58621.06;4986129;28;20231;-53
2022/09/14 05:33:32;;;;;;;7.35;2.58;;;;;;;-145.23;100.00;58621.06;4998659;28;20240;-53
2022/09/14 05:36:01;;;;;;;5.95;2.13;;;;;;;-145.23;100.00;58621.06;4997837;28;20234;-54
2022/09/14 05:38:28;;;;;;;5.50;2.58;;;;;;;-145.23;100.00;58621.06;5002537;28;20236;-54
2022/09/14 05:40:56;;;;;;;3.63;2.58;;;;;;;-145.23;100.00;58621.06;5005883;28;20242;-55
2022/09/14 05:43:23;;;;;;;3.83;2.35;;;;;;;-145.23;100.00;58621.06;4990321;28;20240;-54
2022/09/14 05:45:49;;;;;;;7.15;2.85;;;;;;;-145.23;100.00;58621.06;5004734;28;20657;-54
2022/09/14 05:48:16;;;;;;;8.90;3.55;;;;;;;-145.23;100.00;58621.06;4999551;28;20232;-54
2022/09/14 05:50:43;;;;;;;3.53;2.38;;;;;;;-145.23;100.00;58621.06;5008663;28;20299;-53
2022/09/14 05:53:10;;;;;;;3.58;2.28;;;;;;;-145.23;100.00;58621.06;4999935;28;20237;-54
2022/09/14 05:55:36;;;;;;;3.15;2.08;;;;;;;-145.23;100.00;58621.06;5004578;28;20288;-54
2022/09/14 05:58:04;;;;;;;3.22;2.13;;;;;;;-145.23;100.00;58621.06;5002523;28;20922;-53
2022/09/14 06:00:31;;;;;;;7.88;2.47;;;;;;;-145.23;100.00;58621.06;4991377;28;20240;-54
2022/09/14 06:02:57;;;;;;;2.67;2.30;;;;;;;-145.23;100.00;58621.06;4992947;28;20273;-54
2022/09/14 06:05:24;;;;;;;5.13;2.17;;;;;;;-145.23;100.00;58621.06;5006386;28;20229;-53
2022/09/14 06:07:52;;;;;;;6.03;2.85;;;;;;;-145.23;100.00;58621.06;5005767;28;20233;-55
2022/09/14 06:10:19;;;;;;;5.13;2.05;;;;;;;-145.23;100.00;58621.06;4998803;28;20264;-54
2022/09/14 06:12:46;;;;;;;2.13;1.92;;;;;;;-145.23;100.00;58621.06;5002757;28;20238;-53
2022/09/14 06:15:14;;;;;;;3.05;1.80;;;;;;;-145.23;100.00;58621.06;4999666;28;20909;-53
2022/09/14 06:17:40;;;;;;;6.53;2.78;;;;;;;-145.23;100.00;58621.06;4990067;28;20241;-53
2022/09/14 06:20:08;;;;;;;6.20;3.10;;;;;;;-145.23;100.00;58621.06;5014625;28;20237;-54
2022/09/14 06:22:34;;;;;;;5.90;2.55;;;;;;;-145.23;100.00;58621.06;5002994;28;20233;-53
2022/09/14 06:25:01;;;;;;;5.93;2.30;;;;;;;-145.23;100.00;58621.06;4994937;28;20251;-53
2022/09/14 06:27:27;;;;;;;5.45;2.35;;;;;;;-145.23;100.00;58621.06;4991198;28;20245;-53
2022/09/14 06:29:53;;;;;;;2.33;2.13;;;;;;;-145.23;100.00;58621.06;4994820;28;20237;-54
2022/09/14 06:32:22;;;;;;;5.18;1.90;;;;;;;-145.23;100.00;58621.06;4992351;28;20241;-53
2022/09/14 06:34:48;;;;;;;5.03;2.25;;;;;;;-145.23;100.00;58621.06;4992794;28;20261;-56
2022/09/14 06:37:15;;;;;;;7.93;2.92;;;;;;;-145.23;100.00;58621.06;4995070;28;20229;-53
2022/09/14 06:39:42;;;;;;;7.32;2.65;;;;;;;-145.23;100.00;58621.06;4993024;28;20241;-54
2022/09/14 06:42:08;;;;;;;6.35;2.08;;;;;;;-145.23;100.00;58621.06;4994584;28;20239;-54
2022/09/14 06:44:35;;;;;;;9.65;2.85;;;;;;;-145.23;100.00;58621.06;4997380;28;20237;-53
2022/09/14 06:47:01;;;;;;;5.78;2.40;;;;;;;-145.23;100.00;58621.06;4995808;28;20260;-55
2022/09/14 06:49:29;;;;;;;6.45;2.28;;;;;;;-145.23;100.00;58621.06;5011381;28;20229;-53
2022/09/14 06:51:56;;;;;;;3.25;2.50;;;;;;;-145.23;100.00;58621.06;4991771;28;20238;-54
2022/09/14 06:54:23;;;;;;;5.45;3.17;;;;;;;-145.23;100.00;58621.06;4993012;28;20248;-54
2022/09/14 06:56:50;;;;;;;5.25;2.90;;;;;;;-145.23;100.00;58621.06;4997325;28;20234;-53
2022/09/14 06:59:17;;;;;;;4.25;2.30;;;;;;;-145.23;100.00;58621.06;4993869;28;20248;-53
2022/09/14 07:01:44;;;;;;;4.40;3.65;;;;;;;-145.23;100.00;58621.06;4989333;28;20711;-53
2022/09/14 07:04:11;;;;;;;5.97;3.35;;;;;;;-145.23;100.00;58621.06;4991496;28;20256;-54
2022/09/14 07:06:41;;;;;;;6.57;2.53;;;;;;;-145.23;100.00;58621.06;4992718;28;20268;-53
2022/09/14 07:09:08;;;;;;;3.40;2.40;;;;;;;-145.23;100.00;58621.06;4989097;28;20638;-53
2022/09/14 07:11:34;;;;;;;3.88;3.03;;;;;;;-145.23;100.00;58621.06;4992905;28;20225;-53
2022/09/14 07:14:01;;;;;;;8.02;3.10;;;;;;;-145.23;100.00;58621.06;4994441;28;20325;-53
2022/09/14 07:16:29;;;;;;;5.53;3.05;;;;;;;-145.23;100.00;58621.06;4992833;28;20551;-53
2022/09/14 07:18:56;;;;;;;4.93;2.22;;;;;;;-145.23;100.00;58621.06;4993496;28;20233;-53
2022/09/14 07:21:23;;;;;;;7.63;2.38;;;;;;;-145.23;100.00;58621.06;4995222;28;20446;-53
2022/09/14 07:23:52;;;;;;;6.95;2.40;;;;;;;-145.23;100.00;58621.06;4994715;28;20241;-53
2022/09/14 07:26:21;;;;;;;4.55;2.17;;;;;;;-145.23;100.00;58621.06;4993362;28;20228;-53
2022/09/14 07:28:50;;;;;;;7.80;2.47;;;;;;;-145.23;100.00;58621.06;4990002;28;20596;-53
2022/09/14 07:31:19;;;;;;;8.60;2.67;;;;;;;-145.23;100.00;58621.06;5000670;28;20237;-54
2022/09/14 07:33:46;;;;;;;9.80;2.85;;;;;;;-145.23;100.00;58621.06;4993622;28;20616;-53
2022/09/14 07:36:13;;;;;;;4.70;2.35;;;;;;;-145.23;100.00;58621.06;5002177;28;20228;-53
2022/09/14 07:38:40;;;;;;;6.90;2.55;;;;;;;-145.23;100.00;58621.06;4993407;28;20230;-60
2022/09/14 07:41:09;;;;;;;6.68;3.15;;;;;;;-145.23;100.00;58621.06;5004055;28;20237;-53
2022/09/14 07:43:36;;;;;;;2.45;2.08;;;;;;;-145.23;100.00;58621.06;4996520;28;20317;-53
2022/09/14 07:46:03;;;;;;;3.33;2.25;;;;;;;-145.23;100.00;58621.06;4994019;28;20703;-52
2022/09/14 07:48:29;;;;;;;3.95;2.33;;;;;;;-145.23;100.00;58621.06;4995548;28;20237;-56
2022/09/14 07:51:00;;;;;;;10.00;2.38;;;;;;;-145.23;100.00;58621.06;4986894;28;20225;-61
2022/09/14 07:53:27;;;;;;;4.43;2.42;;;;;;;-145.23;100.00;58621.06;4992012;28;20279;-60
2022/09/14 07:55:53;;;;;;;4.00;2.28;;;;;;;-145.23;100.00;58621.06;4992440;28;20669;-61
2022/09/14 07:58:21;;;;;;;4.20;2.33;;;;;;;-145.23;100.00;58621.06;5001006;28;20238;-59
2022/09/14 08:00:48;;;;;;;5.68;2.38;;;;;;;-145.23;100.00;58621.06;4992338;28;20786;-61
2022/09/14 08:03:14;;;;;;;7.78;2.33;;;;;;;-145.23;100.00;58621.06;4988364;28;20230;-59
2022/09/14 08:05:41;;;;;;;5.85;1.65;;;;;;;-145.23;100.00;58621.06;4986353;28;20742;-61
2022/09/14 08:08:07;;;;;;;7.13;2.58;;;;;;;-145.23;100.00;58621.06;4998003;28;20228;-64
2022/09/14 08:10:35;;;;;;;9.13;2.72;;;;;;;-145.23;100.00;58621.06;4985079;28;20237;-62
2022/09/14 08:13:02;;;;;;;6.05;1.92;;;;;;;-145.23;100.00;58621.06;4988186;28;20254;-60
2022/09/14 08:15:30;;;;;;;7.60;2.40;;;;;;;-145.23;100.00;58621.06;4991489;28;20238;-60
2022/09/14 08:17:57;;;;;;;7.28;1.80;;;;;;;-145.23;100.00;58621.06;4994734;28;20597;-61
2022/09/14 08:20:24;;;;;;;7.60;2.08;;;;;;;-145.23;100.00;58621.06;5012228;28;20228;-57
2022/09/14 08:22:50;;;;;;;10.35;3.17;;;;;;;-145.23;100.00;58621.06;4997710;28;20229;-55
2022/09/14 08:25:17;;;;;;;2.25;1.73;;;;;;;-145.23;100.00;58621.06;4988681;28;20245;-53
2022/09/14 08:27:43;;;;;;;4.57;1.75;;;;;;;-145.23;100.00;58621.06;4986068;28;20266;-54
2022/09/14 08:30:12;;;;;;;5.72;1.75;;;;;;;-145.23;100.00;58621.06;4989692;28;20237;-54
2022/09/14 08:32:40;;;;;;;5.85;2.28;;;;;;;-145.23;100.00;58621.06;4989424;28;20229;-55
2022/09/14 08:35:07;;;;;;;4.88;2.05;;;;;;;-145.23;100.00;58621.06;4989176;28;20752;-55
2022/09/14 08:37:34;;;;;;;6.20;2.05;;;;;;;-145.23;100.00;58621.06;5005501;28;20229;-55
2022/09/14 08:40:00;;;;;;;5.93;2.33;;;;;;;-145.23;100.00;58621.06;4989959;28;20264;-55
2022/09/14 08:42:27;;;;;;;6.95;1.75;;;;;;;-145.23;100.00;58621.06;5003120;28;20258;-54
2022/09/14 08:44:56;;;;;;;5.18;2.00;;;;;;;-145.23;100.00;58621.06;4990335;28;20325;-56
2022/09/14 08:47:26;;;;;;;7.03;2.05;;;;;;;-145.23;100.00;58621.06;4990357;28;20240;-54
2022/09/14 08:50:00;;;;;;;7.43;1.65;;;;;;;-145.23;100.00;58621.06;4982827;28;20233;-54
2022/09/14 08:52:28;;;;;;;4.38;1.55;;;;;;;-145.23;100.00;58621.06;4990342;28;20752;-54
2022/09/14 08:54:57;;;;;;;6.63;2.38;;;;;;;-145.23;100.00;58621.06;4986004;28;20242;-54
2022/09/14 08:57:29;;;;;;;3.75;1.95;;;;;;;-145.23;100.00;58621.06;4993066;28;20240;-54
2022/09/14 09:00:03;;;;;;;2.53;1.67;;;;;;;-145.23;100.00;58621.06;4994261;28;20313;-54
2022/09/14 09:02:43;;;;;;;4.03;1.75;;;;;;;-145.23;100.00;58621.06;4980873;28;20248;-53
2022/09/14 09:05:24;;;;;;;5.03;1.67;;;;;;;-145.23;100.00;58621.06;4982014;28;20265;-54
2022/09/14 09:07:56;;;;;;;4.53;1.58;;;;;;;-145.23;100.00;58621.06;4989101;28;20248;-53
2022/09/14 09:10:25;;;;;;;8.93;2.33;;;;;;;-145.23;100.00;58621.06;5003114;28;20233;-60
2022/09/14 09:12:53;;;;;;;4.43;1.45;;;;;;;-145.23;100.00;58621.06;4996207;28;21379;-62
2022/09/14 09:15:23;;;;;;;3.55;1.48;;;;;;;-145.23;100.00;58621.06;5006344;28;20272;-66
2022/09/14 09:17:53;;;;;;;5.90;1.65;;;;;;;-145.23;100.00;58621.06;4994422;28;20723;-68
2022/09/14 09:20:23;;;;;;;7.30;2.03;;;;;;;-145.23;100.00;58621.06;4990405;28;20242;-68
2022/09/14 09:22:54;;;;;;;4.35;1.83;;;;;;;-145.23;100.00;58621.06;5000341;28;20239;-66
2022/09/14 09:25:23;;;;;;;6.22;2.13;;;;;;;-145.23;100.00;58621.06;4995401;28;20697;-74
2022/09/14 09:27:50;;;;;;;4.53;1.50;;;;;;;-145.23;100.00;58621.06;4995039;28;20234;-74
2022/09/14 09:30:17;;;;;;;3.55;1.65;;;;;;;-145.23;100.00;58621.06;5002131;28;20229;-62
2022/09/14 09:32:44;;;;;;;2.38;1.60;;;;;;;-145.23;100.00;58621.06;5003743;28;20236;-67
2022/09/14 09:35:14;;;;;;;4.47;2.10;;;;;;;-145.23;100.00;58621.06;5000254;28;20229;-61
2022/09/14 09:37:42;;;;;;;7.18;2.33;;;;;;;-145.23;100.00;58621.06;4993320;28;20613;-61
2022/09/14 09:40:16;;;;;;;5.10;2.05;;;;;;;-145.23;100.00;58621.06;4993197;28;20229;-62
2022/09/14 09:43:05;;;;;;;7.20;2.63;;;;;;;-145.23;100.00;58621.06;4990009;28;20234;-62
2022/09/14 09:45:54;;;;;;;4.07;1.70;;;;;;;-145.23;100.00;58621.06;4999553;28;22150;-62
2022/09/14 09:48:24;;;;;;;4.53;1.98;;;;;;;-145.23;100.00;58621.06;4992049;28;20245;-62
2022/09/14 09:50:56;;;;;;;9.20;5.60;;;;;;;-145.23;100.00;58621.06;4995303;28;20326;-63
2022/09/14 09:53:24;;;;;;;6.43;2.75;;;;;;;-145.23;100.00;58621.06;4995661;28;20312;-62
2022/09/14 09:55:51;;;;;;;5.68;2.10;;;;;;;-145.23;100.00;58621.06;4992229;28;20237;-62
2022/09/14 09:58:22;;;;;;;3.50;1.60;;;;;;;-145.23;100.00;58621.06;5002809;28;20782;-62
2022/09/14 10:00:55;;;;;;;3.85;2.03;;;;;;;-145.23;100.00;58621.06;4989923;28;20249;-63
2022/09/14 10:03:31;;;;;;;3.30;1.75;;;;;;;-145.23;100.00;58621.06;5012479;28;20252;-61
2022/09/14 10:06:03;;;;;;;4.82;1.90;;;;;;;-145.23;100.00;58621.06;5000396;28;20312;-61
2022/09/14 10:08:33;;;;;;;5.78;2.17;;;;;;;-145.23;100.00;58621.06;5011217;28;20402;-66
2022/09/14 10:11:01;;;;;;;8.07;2.45;;;;;;;-145.23;100.00;58621.06;4991082;28;20285;-60
2022/09/14 10:13:30;;;;;;;8.27;2.58;;;;;;;-145.23;100.00;58621.06;5004577;28;20228;-65
2022/09/14 10:16:06;;;;;;;5.80;1.98;;;;;;;-145.23;100.00;58621.06;5013004;28;20256;-67
2022/09/14 10:18:32;;;;;;;4.13;1.95;;;;;;;-145.23;100.00;58621.06;4998431;28;20261;-62
2022/09/14 10:21:08;;;;;;;6.60;2.10;;;;;;;-145.23;100.00;58621.06;5014777;28;20242;-68
2022/09/14 10:23:37;;;;;;;6.15;2.83;;;;;;;-145.23;100.00;58621.06;4996858;28;20233;-64
2022/09/14 10:26:27;;;;;;;8.18;3.35;;;;;;;-145.23;100.00;58621.06;5000273;28;20234;-63
2022/09/14 10:28:54;;;;;;;4.97;1.98;;;;;;;-145.23;100.00;58621.06;4979612;28;20639;-57
2022/09/14 10:31:25;;;;;;;5.32;1.98;;;;;;;-145.23;100.00;58621.06;4991791;28;20606;-57
2022/09/14 10:33:54;;;;;;;2.97;1.88;;;;;;;-145.23;100.00;58621.06;5016428;28;20233;-59
2022/09/14 10:36:24;;;;;;;2.47;1.30;;;;;;;-145.23;100.00;58621.06;4990221;28;20863;-59
2022/09/14 10:38:57;;;;;;;5.10;1.58;;;;;;;-145.23;100.00;58621.06;4996913;28;20241;-57
2022/09/14 10:41:27;;;;;;;3.22;1.25;;;;;;;-145.23;100.00;58621.06;4989476;28;20230;-69
2022/09/14 10:44:06;;;;;;;4.03;2.03;;;;;;;-145.23;100.00;58621.06;4998883;28;20695;-65
2022/09/14 10:46:38;;;;;;;5.63;3.45;;;;;;;-145.23;100.00;58621.06;4996236;28;20242;-68
2022/09/14 10:49:14;;;;;;;8.73;4.05;;;;;;;-145.23;100.00;58621.06;4993086;28;20778;-61
2022/09/14 10:51:48;;;;;;;6.30;3.35;;;;;;;-145.23;100.00;58621.06;4990916;28;20225;-60
2022/09/14 10:54:28;;;;;;;5.28;1.75;;;;;;;-145.23;100.00;58621.06;4998803;28;20236;-60
2022/09/14 10:57:04;;;;;;;2.92;1.67;;;;;;;-145.23;100.00;58621.06;4997977;28;20296;-60
2022/09/14 10:59:32;;;;;;;6.03;2.13;;;;;;;-145.23;100.00;58621.06;4993899;28;20233;-61
2022/09/14 11:02:20;;;;;;;3.83;1.90;;;;;;;-145.23;100.00;58621.06;4998174;28;20241;-60
2022/09/14 11:04:58;;;;;;;1.48;1.38;;;;;;;-145.23;100.00;58621.06;4989510;28;20230;-60
2022/09/14 11:07:30;;;;;;;2.80;1.58;;;;;;;-145.23;100.00;58621.06;4991221;28;20726;-59
2022/09/14 11:10:04;;;;;;;6.53;1.77;;;;;;;-145.23;100.00;58621.06;4998908;28;20241;-59
2022/09/14 11:12:36;;;;;;;1.80;1.70;;;;;;;-145.23;100.00;58621.06;4997380;28;20229;-60
2022/09/14 11:15:08;;;;;;;8.00;2.20;;;;;;;-145.23;100.00;58621.06;4991646;28;25192;-59
2022/09/14 11:17:55;;;;;;;6.60;2.00;;;;;;;-145.23;100.00;58621.06;4989627;28;20297;-60